Aviation Digital Data Service (ADDS)

Output produced by METARs form (1843 UTC 18 June 2019)
found at http://www.aviationweather.gov/metar/data/
 
Forecast for: VEGT (GAUHATI (IN-AFB), IN)
Text: TAF VEGT 181700Z 1818/1903 00000KT 3000 BR FEW020 SCT100
Forecast period: 1800 UTC 18 June 2019 to 0300 UTC 19 June 2019
Forecast type: FROM: standard forecast or significant change
Winds: calm
Visibility: 1.86 miles (2.99 km)
Ceiling: at least 12,000 feet AGL
Clouds: few clouds at 2000 feet AGL
scattered clouds at 10000 feet AGL
Weather: BR  (mist)
Text: TEMPO 1900/1903 22010KT 1500 U2013TSRA SCT018 FEW025CB BKN090
Forecast period: 0000 to 0300 UTC 19 June 2019
Forecast type: TEMPORARY: The following changes expected for less than half the time period
Winds: from the SW (220 degrees) at 12 MPH (10 knots; 5.1 m/s)
Visibility: 0.93 miles (1.50 km)
Ceiling: 9000 feet AGL
Clouds: scattered clouds at 1800 feet AGL
few clouds at 2500 feet AGL
broken clouds at 9000 feet AGL
Weather: TSRA  (rain associated with thunderstorm(s))